sensor_id;sensor_type;location;lat;lon;timestamp;P1;durP1;ratioP1;P2;durP2;ratioP2
29662;SDS011;16578;53.266;7.920;2022-10-16T00:01:41;3.75;;;2.08;;
29662;SDS011;16578;53.266;7.920;2022-10-16T00:04:06;3.55;;;1.48;;
29662;SDS011;16578;53.266;7.920;2022-10-16T00:06:33;4.38;;;1.92;;
29662;SDS011;16578;53.266;7.920;2022-10-16T00:08:59;4.82;;;2.10;;
29662;SDS011;16578;53.266;7.920;2022-10-16T00:11:26;5.28;;;2.15;;
29662;SDS011;16578;53.266;7.920;2022-10-16T00:13:57;3.33;;;1.63;;
29662;SDS011;16578;53.266;7.920;2022-10-16T00:16:24;3.03;;;1.55;;
29662;SDS011;16578;53.266;7.920;2022-10-16T00:18:50;5.13;;;2.00;;
29662;SDS011;16578;53.266;7.920;2022-10-16T00:21:18;6.65;;;2.20;;
29662;SDS011;16578;53.266;7.920;2022-10-16T00:23:46;4.95;;;2.25;;
29662;SDS011;16578;53.266;7.920;2022-10-16T00:26:13;3.50;;;1.90;;
29662;SDS011;16578;53.266;7.920;2022-10-16T00:31:07;5.20;;;1.75;;
29662;SDS011;16578;53.266;7.920;2022-10-16T00:33:36;7.15;;;1.88;;
29662;SDS011;16578;53.266;7.920;2022-10-16T00:36:03;5.03;;;2.22;;
29662;SDS011;16578;53.266;7.920;2022-10-16T00:38:30;6.43;;;2.20;;
29662;SDS011;16578;53.266;7.920;2022-10-16T00:40:56;3.83;;;2.28;;
29662;SDS011;16578;53.266;7.920;2022-10-16T00:46:25;4.65;;;1.95;;
29662;SDS011;16578;53.266;7.920;2022-10-16T00:49:05;2.63;;;1.63;;
29662;SDS011;16578;53.266;7.920;2022-10-16T00:51:38;3.05;;;1.90;;
29662;SDS011;16578;53.266;7.920;2022-10-16T00:54:22;7.78;;;2.35;;
29662;SDS011;16578;53.266;7.920;2022-10-16T00:56:51;3.85;;;1.90;;
29662;SDS011;16578;53.266;7.920;2022-10-16T00:59:20;3.80;;;2.25;;
29662;SDS011;16578;53.266;7.920;2022-10-16T01:01:53;3.58;;;2.08;;
29662;SDS011;16578;53.266;7.920;2022-10-16T01:04:19;5.68;;;2.13;;
29662;SDS011;16578;53.266;7.920;2022-10-16T01:06:51;4.78;;;2.25;;
29662;SDS011;16578;53.266;7.920;2022-10-16T01:12:12;5.25;;;2.28;;
29662;SDS011;16578;53.266;7.920;2022-10-16T01:14:54;4.15;;;2.50;;
29662;SDS011;16578;53.266;7.920;2022-10-16T01:17:43;6.40;;;2.53;;
29662;SDS011;16578;53.266;7.920;2022-10-16T01:20:20;5.20;;;2.00;;
29662;SDS011;16578;53.266;7.920;2022-10-16T01:28:01;5.32;;;2.65;;
29662;SDS011;16578;53.266;7.920;2022-10-16T01:30:30;3.72;;;2.70;;
29662;SDS011;16578;53.266;7.920;2022-10-16T01:33:03;4.20;;;2.35;;
29662;SDS011;16578;53.266;7.920;2022-10-16T01:35:36;5.20;;;2.38;;
29662;SDS011;16578;53.266;7.920;2022-10-16T01:38:23;3.28;;;2.30;;
29662;SDS011;16578;53.266;7.920;2022-10-16T01:41:02;6.63;;;2.50;;
29662;SDS011;16578;53.266;7.920;2022-10-16T01:44:03;4.70;;;2.72;;
29662;SDS011;16578;53.266;7.920;2022-10-16T01:46:32;4.68;;;2.58;;
29662;SDS011;16578;53.266;7.920;2022-10-16T01:49:02;3.95;;;2.45;;
29662;SDS011;16578;53.266;7.920;2022-10-16T01:51:29;3.72;;;2.38;;
29662;SDS011;16578;53.266;7.920;2022-10-16T01:53:55;4.53;;;2.58;;
29662;SDS011;16578;53.266;7.920;2022-10-16T01:56:24;4.10;;;2.63;;
29662;SDS011;16578;53.266;7.920;2022-10-16T01:59:35;3.75;;;2.60;;
29662;SDS011;16578;53.266;7.920;2022-10-16T02:01:42;3.55;;;2.67;;
29662;SDS011;16578;53.266;7.920;2022-10-16T02:04:15;4.70;;;2.70;;
29662;SDS011;16578;53.266;7.920;2022-10-16T02:07:05;4.32;;;2.50;;
29662;SDS011;16578;53.266;7.920;2022-10-16T02:09:34;5.25;;;2.55;;
29662;SDS011;16578;53.266;7.920;2022-10-16T02:12:03;6.65;;;2.60;;
29662;SDS011;16578;53.266;7.920;2022-10-16T02:14:35;3.25;;;2.05;;
29662;SDS011;16578;53.266;7.920;2022-10-16T02:17:14;4.35;;;2.47;;
29662;SDS011;16578;53.266;7.920;2022-10-16T02:19:41;5.63;;;2.20;;
29662;SDS011;16578;53.266;7.920;2022-10-16T02:22:09;5.70;;;2.33;;
29662;SDS011;16578;53.266;7.920;2022-10-16T02:24:46;5.97;;;2.53;;
29662;SDS011;16578;53.266;7.920;2022-10-16T02:27:41;3.58;;;2.08;;
29662;SDS011;16578;53.266;7.920;2022-10-16T02:30:15;2.83;;;2.28;;
29662;SDS011;16578;53.266;7.920;2022-10-16T02:33:09;4.10;;;2.50;;
29662;SDS011;16578;53.266;7.920;2022-10-16T02:35:38;8.38;;;2.80;;
29662;SDS011;16578;53.266;7.920;2022-10-16T02:38:04;4.20;;;2.38;;
29662;SDS011;16578;53.266;7.920;2022-10-16T02:40:32;4.63;;;2.60;;
29662;SDS011;16578;53.266;7.920;2022-10-16T02:42:58;4.07;;;2.00;;
29662;SDS011;16578;53.266;7.920;2022-10-16T02:45:24;5.03;;;2.55;;
29662;SDS011;16578;53.266;7.920;2022-10-16T02:47:50;4.53;;;2.90;;
29662;SDS011;16578;53.266;7.920;2022-10-16T02:50:15;4.10;;;2.40;;
29662;SDS011;16578;53.266;7.920;2022-10-16T02:52:41;3.75;;;2.25;;
29662;SDS011;16578;53.266;7.920;2022-10-16T02:55:07;4.43;;;2.33;;
29662;SDS011;16578;53.266;7.920;2022-10-16T02:57:33;5.63;;;2.50;;
29662;SDS011;16578;53.266;7.920;2022-10-16T03:00:02;4.28;;;2.47;;
29662;SDS011;16578;53.266;7.920;2022-10-16T03:02:29;3.85;;;1.95;;
29662;SDS011;16578;53.266;7.920;2022-10-16T03:04:54;6.55;;;2.35;;
29662;SDS011;16578;53.266;7.920;2022-10-16T03:07:20;6.13;;;2.28;;
29662;SDS011;16578;53.266;7.920;2022-10-16T03:09:45;3.00;;;2.15;;
29662;SDS011;16578;53.266;7.920;2022-10-16T03:12:11;3.63;;;2.40;;
29662;SDS011;16578;53.266;7.920;2022-10-16T03:14:37;5.25;;;2.35;;
29662;SDS011;16578;53.266;7.920;2022-10-16T03:17:02;2.45;;;1.95;;
29662;SDS011;16578;53.266;7.920;2022-10-16T03:19:28;6.28;;;2.28;;
29662;SDS011;16578;53.266;7.920;2022-10-16T03:21:53;2.20;;;1.55;;
29662;SDS011;16578;53.266;7.920;2022-10-16T03:24:19;3.95;;;2.00;;
29662;SDS011;16578;53.266;7.920;2022-10-16T03:26:44;2.83;;;1.90;;
29662;SDS011;16578;53.266;7.920;2022-10-16T03:29:10;2.83;;;1.95;;
29662;SDS011;16578;53.266;7.920;2022-10-16T03:31:35;4.80;;;1.98;;
29662;SDS011;16578;53.266;7.920;2022-10-16T03:34:01;4.22;;;1.80;;
29662;SDS011;16578;53.266;7.920;2022-10-16T03:36:27;4.10;;;1.90;;
29662;SDS011;16578;53.266;7.920;2022-10-16T03:38:52;2.13;;;1.60;;
29662;SDS011;16578;53.266;7.920;2022-10-16T03:41:18;4.22;;;1.85;;
29662;SDS011;16578;53.266;7.920;2022-10-16T03:43:43;9.10;;;2.38;;
29662;SDS011;16578;53.266;7.920;2022-10-16T03:46:11;3.63;;;2.00;;
29662;SDS011;16578;53.266;7.920;2022-10-16T03:48:37;2.25;;;1.63;;
29662;SDS011;16578;53.266;7.920;2022-10-16T03:51:02;1.95;;;1.77;;
29662;SDS011;16578;53.266;7.920;2022-10-16T03:53:28;11.70;;;2.28;;
29662;SDS011;16578;53.266;7.920;2022-10-16T03:55:53;9.43;;;2.00;;
29662;SDS011;16578;53.266;7.920;2022-10-16T03:58:19;6.43;;;1.80;;
29662;SDS011;16578;53.266;7.920;2022-10-16T04:00:45;4.22;;;1.95;;
29662;SDS011;16578;53.266;7.920;2022-10-16T04:03:12;3.38;;;1.65;;
29662;SDS011;16578;53.266;7.920;2022-10-16T04:05:38;3.63;;;1.80;;
29662;SDS011;16578;53.266;7.920;2022-10-16T04:08:04;3.22;;;1.83;;
29662;SDS011;16578;53.266;7.920;2022-10-16T04:10:29;3.92;;;1.80;;
29662;SDS011;16578;53.266;7.920;2022-10-16T04:12:55;3.28;;;1.70;;
29662;SDS011;16578;53.266;7.920;2022-10-16T04:15:24;3.08;;;1.85;;
29662;SDS011;16578;53.266;7.920;2022-10-16T04:17:51;2.92;;;1.67;;
29662;SDS011;16578;53.266;7.920;2022-10-16T04:20:17;3.13;;;1.60;;
29662;SDS011;16578;53.266;7.920;2022-10-16T04:22:42;3.38;;;1.55;;
29662;SDS011;16578;53.266;7.920;2022-10-16T04:25:08;7.32;;;1.75;;
29662;SDS011;16578;53.266;7.920;2022-10-16T04:27:34;5.38;;;2.00;;
29662;SDS011;16578;53.266;7.920;2022-10-16T04:30:00;2.92;;;1.60;;
29662;SDS011;16578;53.266;7.920;2022-10-16T04:32:26;4.43;;;2.15;;
29662;SDS011;16578;53.266;7.920;2022-10-16T04:34:52;3.25;;;1.70;;
29662;SDS011;16578;53.266;7.920;2022-10-16T04:37:18;2.60;;;1.67;;
29662;SDS011;16578;53.266;7.920;2022-10-16T04:39:43;5.88;;;1.92;;
29662;SDS011;16578;53.266;7.920;2022-10-16T04:42:09;5.25;;;2.00;;
29662;SDS011;16578;53.266;7.920;2022-10-16T04:44:35;2.83;;;1.90;;
29662;SDS011;16578;53.266;7.920;2022-10-16T04:47:01;2.55;;;1.60;;
29662;SDS011;16578;53.266;7.920;2022-10-16T04:49:27;2.63;;;1.92;;
29662;SDS011;16578;53.266;7.920;2022-10-16T04:51:52;6.05;;;2.20;;
29662;SDS011;16578;53.266;7.920;2022-10-16T04:54:18;5.13;;;2.08;;
29662;SDS011;16578;53.266;7.920;2022-10-16T04:56:43;2.13;;;1.73;;
29662;SDS011;16578;53.266;7.920;2022-10-16T04:59:13;2.08;;;1.80;;
29662;SDS011;16578;53.266;7.920;2022-10-16T05:01:39;4.03;;;2.08;;
29662;SDS011;16578;53.266;7.920;2022-10-16T05:04:05;7.60;;;2.08;;
29662;SDS011;16578;53.266;7.920;2022-10-16T05:06:30;4.18;;;1.70;;
29662;SDS011;16578;53.266;7.920;2022-10-16T05:08:56;4.38;;;2.10;;
29662;SDS011;16578;53.266;7.920;2022-10-16T05:11:21;7.88;;;1.88;;
29662;SDS011;16578;53.266;7.920;2022-10-16T05:13:47;2.10;;;1.70;;
29662;SDS011;16578;53.266;7.920;2022-10-16T05:16:12;4.07;;;2.08;;
29662;SDS011;16578;53.266;7.920;2022-10-16T05:18:38;2.80;;;1.88;;
29662;SDS011;16578;53.266;7.920;2022-10-16T05:21:03;4.15;;;2.13;;
29662;SDS011;16578;53.266;7.920;2022-10-16T05:23:30;4.53;;;2.35;;
29662;SDS011;16578;53.266;7.920;2022-10-16T05:25:56;3.30;;;2.00;;
29662;SDS011;16578;53.266;7.920;2022-10-16T05:28:24;3.30;;;2.10;;
29662;SDS011;16578;53.266;7.920;2022-10-16T05:30:50;2.95;;;2.08;;
29662;SDS011;16578;53.266;7.920;2022-10-16T05:33:16;2.47;;;1.98;;
29662;SDS011;16578;53.266;7.920;2022-10-16T05:35:41;4.03;;;2.38;;
29662;SDS011;16578;53.266;7.920;2022-10-16T05:38:08;5.00;;;2.40;;
29662;SDS011;16578;53.266;7.920;2022-10-16T05:40:34;5.38;;;2.97;;
29662;SDS011;16578;53.266;7.920;2022-10-16T05:43:00;2.50;;;2.30;;
29662;SDS011;16578;53.266;7.920;2022-10-16T05:45:25;5.38;;;2.72;;
29662;SDS011;16578;53.266;7.920;2022-10-16T05:47:51;3.38;;;2.30;;
29662;SDS011;16578;53.266;7.920;2022-10-16T05:50:17;5.47;;;2.53;;
29662;SDS011;16578;53.266;7.920;2022-10-16T05:52:42;4.15;;;2.30;;
29662;SDS011;16578;53.266;7.920;2022-10-16T05:55:08;3.80;;;2.25;;
29662;SDS011;16578;53.266;7.920;2022-10-16T05:57:33;5.10;;;2.75;;
29662;SDS011;16578;53.266;7.920;2022-10-16T05:59:59;3.33;;;2.25;;
29662;SDS011;16578;53.266;7.920;2022-10-16T06:02:24;4.28;;;2.67;;
29662;SDS011;16578;53.266;7.920;2022-10-16T06:04:53;3.25;;;2.67;;
29662;SDS011;16578;53.266;7.920;2022-10-16T06:09:47;3.95;;;2.38;;
29662;SDS011;16578;53.266;7.920;2022-10-16T06:12:14;5.72;;;2.78;;
29662;SDS011;16578;53.266;7.920;2022-10-16T06:14:39;12.27;;;3.60;;
29662;SDS011;16578;53.266;7.920;2022-10-16T06:17:05;4.70;;;2.67;;
29662;SDS011;16578;53.266;7.920;2022-10-16T06:19:30;3.67;;;2.55;;
29662;SDS011;16578;53.266;7.920;2022-10-16T06:21:56;4.10;;;2.90;;
29662;SDS011;16578;53.266;7.920;2022-10-16T06:24:23;4.00;;;2.88;;
29662;SDS011;16578;53.266;7.920;2022-10-16T06:26:49;2.95;;;2.65;;
29662;SDS011;16578;53.266;7.920;2022-10-16T06:29:14;4.70;;;2.75;;
29662;SDS011;16578;53.266;7.920;2022-10-16T06:31:40;3.15;;;2.50;;
29662;SDS011;16578;53.266;7.920;2022-10-16T06:34:06;4.78;;;3.00;;
29662;SDS011;16578;53.266;7.920;2022-10-16T06:36:35;4.32;;;2.97;;
29662;SDS011;16578;53.266;7.920;2022-10-16T06:39:01;5.68;;;2.75;;
29662;SDS011;16578;53.266;7.920;2022-10-16T06:41:26;4.97;;;3.15;;
29662;SDS011;16578;53.266;7.920;2022-10-16T06:43:52;5.00;;;2.67;;
29662;SDS011;16578;53.266;7.920;2022-10-16T06:46:19;3.78;;;2.75;;
29662;SDS011;16578;53.266;7.920;2022-10-16T06:48:46;3.60;;;3.03;;
29662;SDS011;16578;53.266;7.920;2022-10-16T06:51:13;3.92;;;2.80;;
29662;SDS011;16578;53.266;7.920;2022-10-16T06:53:42;3.30;;;2.58;;
29662;SDS011;16578;53.266;7.920;2022-10-16T06:56:15;4.35;;;2.88;;
29662;SDS011;16578;53.266;7.920;2022-10-16T06:58:43;2.60;;;2.40;;
29662;SDS011;16578;53.266;7.920;2022-10-16T07:01:09;3.78;;;3.20;;
29662;SDS011;16578;53.266;7.920;2022-10-16T07:03:37;4.88;;;2.72;;
29662;SDS011;16578;53.266;7.920;2022-10-16T07:06:07;5.70;;;2.80;;
29662;SDS011;16578;53.266;7.920;2022-10-16T07:08:34;5.43;;;2.45;;
29662;SDS011;16578;53.266;7.920;2022-10-16T07:11:01;3.80;;;2.42;;
29662;SDS011;16578;53.266;7.920;2022-10-16T07:13:29;4.45;;;2.90;;
29662;SDS011;16578;53.266;7.920;2022-10-16T07:15:55;5.53;;;3.13;;
29662;SDS011;16578;53.266;7.920;2022-10-16T07:18:20;5.07;;;2.97;;
29662;SDS011;16578;53.266;7.920;2022-10-16T07:20:51;3.50;;;2.83;;
29662;SDS011;16578;53.266;7.920;2022-10-16T07:23:16;3.80;;;2.97;;
29662;SDS011;16578;53.266;7.920;2022-10-16T07:25:42;4.70;;;3.10;;
29662;SDS011;16578;53.266;7.920;2022-10-16T07:28:07;4.65;;;2.53;;
29662;SDS011;16578;53.266;7.920;2022-10-16T07:30:34;4.18;;;2.75;;
29662;SDS011;16578;53.266;7.920;2022-10-16T07:33:02;3.22;;;2.58;;
29662;SDS011;16578;53.266;7.920;2022-10-16T07:35:27;3.97;;;2.38;;
29662;SDS011;16578;53.266;7.920;2022-10-16T07:37:53;3.53;;;2.45;;
29662;SDS011;16578;53.266;7.920;2022-10-16T07:40:18;4.47;;;2.97;;
29662;SDS011;16578;53.266;7.920;2022-10-16T07:42:44;3.60;;;2.85;;
29662;SDS011;16578;53.266;7.920;2022-10-16T07:45:09;3.95;;;2.30;;
29662;SDS011;16578;53.266;7.920;2022-10-16T07:47:35;6.10;;;2.35;;
29662;SDS011;16578;53.266;7.920;2022-10-16T07:50:00;2.40;;;2.20;;
29662;SDS011;16578;53.266;7.920;2022-10-16T07:52:26;2.80;;;2.05;;
29662;SDS011;16578;53.266;7.920;2022-10-16T07:54:51;3.85;;;2.35;;
29662;SDS011;16578;53.266;7.920;2022-10-16T07:57:17;7.75;;;2.63;;
29662;SDS011;16578;53.266;7.920;2022-10-16T07:59:45;3.97;;;2.45;;
29662;SDS011;16578;53.266;7.920;2022-10-16T08:02:11;3.58;;;2.58;;
29662;SDS011;16578;53.266;7.920;2022-10-16T08:04:36;3.40;;;2.38;;
29662;SDS011;16578;53.266;7.920;2022-10-16T08:07:02;4.60;;;2.53;;
29662;SDS011;16578;53.266;7.920;2022-10-16T08:09:27;4.53;;;2.15;;
29662;SDS011;16578;53.266;7.920;2022-10-16T08:11:53;4.80;;;2.22;;
29662;SDS011;16578;53.266;7.920;2022-10-16T08:14:18;2.42;;;2.00;;
29662;SDS011;16578;53.266;7.920;2022-10-16T08:16:44;3.22;;;2.10;;
29662;SDS011;16578;53.266;7.920;2022-10-16T08:19:09;4.18;;;2.20;;
29662;SDS011;16578;53.266;7.920;2022-10-16T08:21:35;5.22;;;2.47;;
29662;SDS011;16578;53.266;7.920;2022-10-16T08:24:00;3.13;;;1.80;;
29662;SDS011;16578;53.266;7.920;2022-10-16T08:26:26;3.38;;;2.40;;
29662;SDS011;16578;53.266;7.920;2022-10-16T08:28:52;4.43;;;2.03;;
29662;SDS011;16578;53.266;7.920;2022-10-16T08:31:18;2.17;;;1.98;;
29662;SDS011;16578;53.266;7.920;2022-10-16T08:33:44;4.68;;;2.30;;
29662;SDS011;16578;53.266;7.920;2022-10-16T08:36:11;4.53;;;1.92;;
29662;SDS011;16578;53.266;7.920;2022-10-16T08:38:38;2.47;;;1.75;;
29662;SDS011;16578;53.266;7.920;2022-10-16T08:43:40;2.55;;;2.00;;
29662;SDS011;16578;53.266;7.920;2022-10-16T08:46:31;2.58;;;1.92;;
29662;SDS011;16578;53.266;7.920;2022-10-16T08:49:16;4.45;;;2.13;;
29662;SDS011;16578;53.266;7.920;2022-10-16T08:51:42;3.00;;;1.75;;
29662;SDS011;16578;53.266;7.920;2022-10-16T08:57:08;3.13;;;1.75;;
29662;SDS011;16578;53.266;7.920;2022-10-16T08:59:36;4.00;;;1.48;;
29662;SDS011;16578;53.266;7.920;2022-10-16T09:02:02;1.75;;;1.63;;
29662;SDS011;16578;53.266;7.920;2022-10-16T09:04:52;1.83;;;1.50;;
29662;SDS011;16578;53.266;7.920;2022-10-16T09:10:27;4.35;;;1.88;;
29662;SDS011;16578;53.266;7.920;2022-10-16T09:13:17;3.50;;;2.08;;
29662;SDS011;16578;53.266;7.920;2022-10-16T09:18:19;3.00;;;1.75;;
29662;SDS011;16578;53.266;7.920;2022-10-16T09:23:40;4.15;;;1.90;;
29662;SDS011;16578;53.266;7.920;2022-10-16T09:26:09;3.20;;;1.73;;
29662;SDS011;16578;53.266;7.920;2022-10-16T09:28:36;2.95;;;1.50;;
29662;SDS011;16578;53.266;7.920;2022-10-16T09:31:02;3.83;;;1.70;;
29662;SDS011;16578;53.266;7.920;2022-10-16T09:33:29;4.70;;;2.00;;
29662;SDS011;16578;53.266;7.920;2022-10-16T09:35:59;2.50;;;1.58;;
29662;SDS011;16578;53.266;7.920;2022-10-16T09:38:31;3.50;;;1.35;;
29662;SDS011;16578;53.266;7.920;2022-10-16T09:40:59;1.88;;;1.35;;
29662;SDS011;16578;53.266;7.920;2022-10-16T09:43:27;2.53;;;1.48;;
29662;SDS011;16578;53.266;7.920;2022-10-16T09:46:19;4.80;;;2.33;;
29662;SDS011;16578;53.266;7.920;2022-10-16T09:48:51;2.45;;;1.35;;
29662;SDS011;16578;53.266;7.920;2022-10-16T09:51:22;3.13;;;1.77;;
29662;SDS011;16578;53.266;7.920;2022-10-16T09:53:54;7.10;;;1.80;;
29662;SDS011;16578;53.266;7.920;2022-10-16T09:56:30;3.88;;;1.50;;
29662;SDS011;16578;53.266;7.920;2022-10-16T09:59:13;3.20;;;1.50;;
29662;SDS011;16578;53.266;7.920;2022-10-16T10:01:48;2.13;;;1.30;;
29662;SDS011;16578;53.266;7.920;2022-10-16T10:04:18;4.05;;;1.55;;
29662;SDS011;16578;53.266;7.920;2022-10-16T10:06:49;5.25;;;1.58;;
29662;SDS011;16578;53.266;7.920;2022-10-16T10:14:21;2.20;;;1.13;;
29662;SDS011;16578;53.266;7.920;2022-10-16T10:16:47;3.85;;;1.60;;
29662;SDS011;16578;53.266;7.920;2022-10-16T10:19:14;5.80;;;1.50;;
29662;SDS011;16578;53.266;7.920;2022-10-16T10:21:48;4.32;;;1.45;;
29662;SDS011;16578;53.266;7.920;2022-10-16T10:24:15;6.00;;;1.58;;
29662;SDS011;16578;53.266;7.920;2022-10-16T10:26:44;4.80;;;1.48;;
29662;SDS011;16578;53.266;7.920;2022-10-16T10:29:31;4.10;;;1.50;;
29662;SDS011;16578;53.266;7.920;2022-10-16T10:32:08;6.85;;;1.70;;
29662;SDS011;16578;53.266;7.920;2022-10-16T10:37:50;3.22;;;1.40;;
29662;SDS011;16578;53.266;7.920;2022-10-16T10:43:45;2.80;;;1.33;;
29662;SDS011;16578;53.266;7.920;2022-10-16T10:46:17;4.15;;;1.50;;
29662;SDS011;16578;53.266;7.920;2022-10-16T10:49:03;4.32;;;1.60;;
29662;SDS011;16578;53.266;7.920;2022-10-16T10:51:44;5.55;;;1.65;;
29662;SDS011;16578;53.266;7.920;2022-10-16T10:56:52;7.03;;;2.55;;
29662;SDS011;16578;53.266;7.920;2022-10-16T11:05:27;8.75;;;2.20;;
29662;SDS011;16578;53.266;7.920;2022-10-16T11:08:14;11.90;;;1.83;;
29662;SDS011;16578;53.266;7.920;2022-10-16T11:13:34;8.27;;;2.10;;
29662;SDS011;16578;53.266;7.920;2022-10-16T11:16:13;5.55;;;1.98;;
29662;SDS011;16578;53.266;7.920;2022-10-16T11:18:49;5.35;;;1.83;;
29662;SDS011;16578;53.266;7.920;2022-10-16T11:21:21;8.02;;;2.20;;
29662;SDS011;16578;53.266;7.920;2022-10-16T11:23:51;6.30;;;2.00;;
29662;SDS011;16578;53.266;7.920;2022-10-16T11:26:23;7.68;;;2.67;;
29662;SDS011;16578;53.266;7.920;2022-10-16T11:28:53;7.60;;;2.08;;
29662;SDS011;16578;53.266;7.920;2022-10-16T11:41:50;4.28;;;1.73;;
29662;SDS011;16578;53.266;7.920;2022-10-16T11:49:58;4.10;;;1.38;;
29662;SDS011;16578;53.266;7.920;2022-10-16T11:52:30;5.38;;;1.80;;
29662;SDS011;16578;53.266;7.920;2022-10-16T11:55:14;5.85;;;1.63;;
29662;SDS011;16578;53.266;7.920;2022-10-16T12:08:35;6.45;;;1.92;;
29662;SDS011;16578;53.266;7.920;2022-10-16T12:11:36;5.68;;;2.00;;
29662;SDS011;16578;53.266;7.920;2022-10-16T12:14:07;3.80;;;1.60;;
29662;SDS011;16578;53.266;7.920;2022-10-16T12:16:59;5.65;;;2.00;;
29662;SDS011;16578;53.266;7.920;2022-10-16T12:20:00;7.95;;;2.15;;
29662;SDS011;16578;53.266;7.920;2022-10-16T12:23:19;5.23;;;2.10;;
29662;SDS011;16578;53.266;7.920;2022-10-16T12:25:53;4.38;;;1.50;;
29662;SDS011;16578;53.266;7.920;2022-10-16T12:28:26;5.22;;;1.80;;
29662;SDS011;16578;53.266;7.920;2022-10-16T12:30:54;6.68;;;2.30;;
29662;SDS011;16578;53.266;7.920;2022-10-16T12:33:23;6.60;;;1.88;;
29662;SDS011;16578;53.266;7.920;2022-10-16T12:35:50;5.75;;;1.70;;
29662;SDS011;16578;53.266;7.920;2022-10-16T12:41:24;4.32;;;1.75;;
29662;SDS011;16578;53.266;7.920;2022-10-16T12:43:57;4.88;;;1.50;;
29662;SDS011;16578;53.266;7.920;2022-10-16T12:51:39;5.80;;;1.67;;
29662;SDS011;16578;53.266;7.920;2022-10-16T12:54:13;7.45;;;1.85;;
29662;SDS011;16578;53.266;7.920;2022-10-16T12:59:52;13.95;;;2.10;;
29662;SDS011;16578;53.266;7.920;2022-10-16T13:23:03;6.20;;;1.92;;
29662;SDS011;16578;53.266;7.920;2022-10-16T13:28:27;5.13;;;1.63;;
29662;SDS011;16578;53.266;7.920;2022-10-16T13:30:57;5.75;;;1.63;;
29662;SDS011;16578;53.266;7.920;2022-10-16T13:35:55;4.32;;;1.63;;
29662;SDS011;16578;53.266;7.920;2022-10-16T13:38:23;7.50;;;2.20;;
29662;SDS011;16578;53.266;7.920;2022-10-16T13:41:00;6.22;;;1.58;;
29662;SDS011;16578;53.266;7.920;2022-10-16T13:46:05;5.90;;;1.50;;
29662;SDS011;16578;53.266;7.920;2022-10-16T13:48:33;7.78;;;1.80;;
29662;SDS011;16578;53.266;7.920;2022-10-16T13:51:03;5.57;;;1.77;;
29662;SDS011;16578;53.266;7.920;2022-10-16T13:53:42;4.28;;;1.77;;
29662;SDS011;16578;53.266;7.920;2022-10-16T13:56:13;5.15;;;1.80;;
29662;SDS011;16578;53.266;7.920;2022-10-16T13:58:41;3.55;;;1.58;;
29662;SDS011;16578;53.266;7.920;2022-10-16T14:01:20;5.00;;;1.67;;
29662;SDS011;16578;53.266;7.920;2022-10-16T14:03:50;5.10;;;1.50;;
29662;SDS011;16578;53.266;7.920;2022-10-16T14:06:20;5.80;;;1.65;;
29662;SDS011;16578;53.266;7.920;2022-10-16T14:08:50;4.72;;;1.75;;
29662;SDS011;16578;53.266;7.920;2022-10-16T14:11:23;6.53;;;1.95;;
29662;SDS011;16578;53.266;7.920;2022-10-16T14:13:50;5.13;;;1.88;;
29662;SDS011;16578;53.266;7.920;2022-10-16T14:16:21;7.45;;;1.75;;
29662;SDS011;16578;53.266;7.920;2022-10-16T14:18:55;5.35;;;2.00;;
29662;SDS011;16578;53.266;7.920;2022-10-16T14:21:21;7.47;;;1.75;;
29662;SDS011;16578;53.266;7.920;2022-10-16T14:23:47;4.80;;;1.83;;
29662;SDS011;16578;53.266;7.920;2022-10-16T14:26:13;4.53;;;1.60;;
29662;SDS011;16578;53.266;7.920;2022-10-16T14:28:41;6.47;;;1.83;;
29662;SDS011;16578;53.266;7.920;2022-10-16T14:31:24;5.70;;;1.75;;
29662;SDS011;16578;53.266;7.920;2022-10-16T14:33:55;5.97;;;1.95;;
29662;SDS011;16578;53.266;7.920;2022-10-16T14:36:24;6.03;;;2.03;;
29662;SDS011;16578;53.266;7.920;2022-10-16T14:41:30;8.82;;;1.90;;
29662;SDS011;16578;53.266;7.920;2022-10-16T14:44:04;4.50;;;1.60;;
29662;SDS011;16578;53.266;7.920;2022-10-16T14:46:31;5.72;;;1.67;;
29662;SDS011;16578;53.266;7.920;2022-10-16T14:49:03;4.28;;;1.42;;
29662;SDS011;16578;53.266;7.920;2022-10-16T14:51:40;3.35;;;1.30;;
29662;SDS011;16578;53.266;7.920;2022-10-16T14:54:07;6.20;;;1.80;;
29662;SDS011;16578;53.266;7.920;2022-10-16T14:56:35;6.82;;;1.80;;
29662;SDS011;16578;53.266;7.920;2022-10-16T15:01:44;4.22;;;1.63;;
29662;SDS011;16578;53.266;7.920;2022-10-16T15:04:10;8.18;;;2.05;;
29662;SDS011;16578;53.266;7.920;2022-10-16T15:06:37;5.13;;;1.90;;
29662;SDS011;16578;53.266;7.920;2022-10-16T15:09:03;5.20;;;1.98;;
29662;SDS011;16578;53.266;7.920;2022-10-16T15:11:28;3.95;;;1.55;;
29662;SDS011;16578;53.266;7.920;2022-10-16T15:13:57;9.73;;;1.88;;
29662;SDS011;16578;53.266;7.920;2022-10-16T15:16:23;4.78;;;1.70;;
29662;SDS011;16578;53.266;7.920;2022-10-16T15:18:48;4.70;;;1.55;;
29662;SDS011;16578;53.266;7.920;2022-10-16T15:21:30;6.05;;;1.70;;
29662;SDS011;16578;53.266;7.920;2022-10-16T15:23:57;6.28;;;1.67;;
29662;SDS011;16578;53.266;7.920;2022-10-16T15:26:24;4.25;;;1.63;;
29662;SDS011;16578;53.266;7.920;2022-10-16T15:28:51;8.68;;;1.85;;
29662;SDS011;16578;53.266;7.920;2022-10-16T15:31:16;6.30;;;1.98;;
29662;SDS011;16578;53.266;7.920;2022-10-16T15:33:42;7.03;;;1.90;;
29662;SDS011;16578;53.266;7.920;2022-10-16T15:36:08;7.00;;;1.80;;
29662;SDS011;16578;53.266;7.920;2022-10-16T15:38:34;6.78;;;1.63;;
29662;SDS011;16578;53.266;7.920;2022-10-16T15:41:00;6.93;;;2.22;;
29662;SDS011;16578;53.266;7.920;2022-10-16T15:43:25;5.32;;;2.00;;
29662;SDS011;16578;53.266;7.920;2022-10-16T15:46:05;6.60;;;1.75;;
29662;SDS011;16578;53.266;7.920;2022-10-16T15:48:33;6.30;;;1.65;;
29662;SDS011;16578;53.266;7.920;2022-10-16T15:51:06;6.63;;;1.73;;
29662;SDS011;16578;53.266;7.920;2022-10-16T15:53:32;5.85;;;1.95;;
29662;SDS011;16578;53.266;7.920;2022-10-16T15:56:08;7.93;;;1.90;;
29662;SDS011;16578;53.266;7.920;2022-10-16T15:58:36;19.27;;;2.92;;
29662;SDS011;16578;53.266;7.920;2022-10-16T16:01:02;4.43;;;1.70;;
29662;SDS011;16578;53.266;7.920;2022-10-16T16:03:31;6.88;;;2.28;;
29662;SDS011;16578;53.266;7.920;2022-10-16T16:05:57;4.88;;;2.13;;
29662;SDS011;16578;53.266;7.920;2022-10-16T16:08:23;4.97;;;1.70;;
29662;SDS011;16578;53.266;7.920;2022-10-16T16:11:01;2.88;;;1.50;;
29662;SDS011;16578;53.266;7.920;2022-10-16T16:13:35;6.18;;;1.80;;
29662;SDS011;16578;53.266;7.920;2022-10-16T16:16:07;8.27;;;1.98;;
29662;SDS011;16578;53.266;7.920;2022-10-16T16:18:38;8.43;;;2.25;;
29662;SDS011;16578;53.266;7.920;2022-10-16T16:21:04;10.80;;;2.65;;
29662;SDS011;16578;53.266;7.920;2022-10-16T16:23:30;4.70;;;1.90;;
29662;SDS011;16578;53.266;7.920;2022-10-16T16:28:58;4.30;;;1.75;;
29662;SDS011;16578;53.266;7.920;2022-10-16T16:31:25;6.55;;;2.45;;
29662;SDS011;16578;53.266;7.920;2022-10-16T16:33:51;4.40;;;2.22;;
29662;SDS011;16578;53.266;7.920;2022-10-16T16:36:17;5.85;;;2.10;;
29662;SDS011;16578;53.266;7.920;2022-10-16T16:38:43;7.28;;;2.72;;
29662;SDS011;16578;53.266;7.920;2022-10-16T16:41:16;6.20;;;2.83;;
29662;SDS011;16578;53.266;7.920;2022-10-16T16:43:43;18.63;;;4.05;;
29662;SDS011;16578;53.266;7.920;2022-10-16T16:46:10;8.77;;;2.90;;
29662;SDS011;16578;53.266;7.920;2022-10-16T16:48:36;5.30;;;3.00;;
29662;SDS011;16578;53.266;7.920;2022-10-16T16:51:06;5.10;;;2.65;;
29662;SDS011;16578;53.266;7.920;2022-10-16T16:53:34;5.57;;;2.50;;
29662;SDS011;16578;53.266;7.920;2022-10-16T16:56:04;7.85;;;3.22;;
29662;SDS011;16578;53.266;7.920;2022-10-16T16:58:30;6.97;;;3.30;;
29662;SDS011;16578;53.266;7.920;2022-10-16T17:00:56;7.15;;;2.45;;
29662;SDS011;16578;53.266;7.920;2022-10-16T17:03:26;9.90;;;3.03;;
29662;SDS011;16578;53.266;7.920;2022-10-16T17:06:00;6.43;;;3.40;;
29662;SDS011;16578;53.266;7.920;2022-10-16T17:08:28;7.03;;;3.03;;
29662;SDS011;16578;53.266;7.920;2022-10-16T17:10:54;5.15;;;2.95;;